sensor_id;sensor_type;location;lat;lon;timestamp;pressure;altitude;pressure_sealevel;temperature;humidity
9059;BME280;4564;42.034;25.834;2023-01-28T00:00:02;99519.72;;;4.89;100.00
9059;BME280;4564;42.034;25.834;2023-01-28T00:02:31;99522.25;;;4.82;100.00
9059;BME280;4564;42.034;25.834;2023-01-28T00:04:59;99526.25;;;4.86;100.00
9059;BME280;4564;42.034;25.834;2023-01-28T00:07:25;99520.06;;;4.78;100.00
9059;BME280;4564;42.034;25.834;2023-01-28T00:09:52;99532.50;;;4.79;100.00
9059;BME280;4564;42.034;25.834;2023-01-28T00:12:19;99538.38;;;4.82;100.00
9059;BME280;4564;42.034;25.834;2023-01-28T00:14:45;99528.47;;;4.75;100.00
9059;BME280;4564;42.034;25.834;2023-01-28T00:17:13;99535.84;;;4.81;100.00
9059;BME280;4564;42.034;25.834;2023-01-28T00:19:39;99530.81;;;4.78;100.00
9059;BME280;4564;42.034;25.834;2023-01-28T00:22:07;99541.22;;;4.81;100.00
9059;BME280;4564;42.034;25.834;2023-01-28T00:24:34;99533.16;;;4.56;100.00
9059;BME280;4564;42.034;25.834;2023-01-28T00:27:00;99543.75;;;4.58;100.00
9059;BME280;4564;42.034;25.834;2023-01-28T00:29:27;99539.72;;;4.54;100.00
9059;BME280;4564;42.034;25.834;2023-01-28T00:31:54;99543.06;;;4.56;100.00
9059;BME280;4564;42.034;25.834;2023-01-28T00:34:20;99546.94;;;4.61;100.00
9059;BME280;4564;42.034;25.834;2023-01-28T00:36:47;99546.25;;;4.59;100.00
9059;BME280;4564;42.034;25.834;2023-01-28T00:39:23;99544.25;;;4.61;100.00
9059;BME280;4564;42.034;25.834;2023-01-28T00:41:50;99541.91;;;4.58;100.00
9059;BME280;4564;42.034;25.834;2023-01-28T00:44:16;99556.16;;;4.51;100.00
9059;BME280;4564;42.034;25.834;2023-01-28T00:46:43;99558.69;;;4.52;100.00
9059;BME280;4564;42.034;25.834;2023-01-28T00:49:10;99561.19;;;4.54;100.00
9059;BME280;4564;42.034;25.834;2023-01-28T00:51:36;99566.91;;;4.51;100.00
9059;BME280;4564;42.034;25.834;2023-01-28T00:54:03;99570.09;;;4.54;100.00
9059;BME280;4564;42.034;25.834;2023-01-28T00:56:31;99569.25;;;4.54;100.00
9059;BME280;4564;42.034;25.834;2023-01-28T00:58:58;99570.28;;;4.53;100.00
9059;BME280;4564;42.034;25.834;2023-01-28T01:01:25;99577.50;;;4.60;100.00
9059;BME280;4564;42.034;25.834;2023-01-28T01:03:52;99577.19;;;4.63;100.00
9059;BME280;4564;42.034;25.834;2023-01-28T01:06:22;99574.47;;;4.47;100.00
9059;BME280;4564;42.034;25.834;2023-01-28T01:08:49;99569.75;;;4.49;100.00
9059;BME280;4564;42.034;25.834;2023-01-28T01:11:16;99582.19;;;4.50;100.00
9059;BME280;4564;42.034;25.834;2023-01-28T01:13:45;99575.63;;;4.45;100.00
9059;BME280;4564;42.034;25.834;2023-01-28T01:16:14;99585.38;;;4.46;100.00
9059;BME280;4564;42.034;25.834;2023-01-28T01:18:42;99589.91;;;4.45;100.00
9059;BME280;4564;42.034;25.834;2023-01-28T01:21:09;99591.91;;;4.35;100.00
9059;BME280;4564;42.034;25.834;2023-01-28T01:23:36;99587.53;;;4.34;100.00
9059;BME280;4564;42.034;25.834;2023-01-28T01:26:02;99594.25;;;4.30;100.00
9059;BME280;4564;42.034;25.834;2023-01-28T01:28:29;99595.09;;;4.31;100.00
9059;BME280;4564;42.034;25.834;2023-01-28T01:31:00;99597.59;;;4.32;100.00
9059;BME280;4564;42.034;25.834;2023-01-28T01:33:27;99593.91;;;4.33;100.00
9059;BME280;4564;42.034;25.834;2023-01-28T01:35:54;99593.94;;;4.41;100.00
9059;BME280;4564;42.034;25.834;2023-01-28T01:38:21;99599.13;;;4.43;100.00
9059;BME280;4564;42.034;25.834;2023-01-28T01:40:48;99598.31;;;4.42;100.00
9059;BME280;4564;42.034;25.834;2023-01-28T01:43:15;99601.00;;;4.42;100.00
9059;BME280;4564;42.034;25.834;2023-01-28T01:45:42;99605.69;;;4.40;100.00
9059;BME280;4564;42.034;25.834;2023-01-28T01:48:12;99607.66;;;4.22;100.00
9059;BME280;4564;42.034;25.834;2023-01-28T01:50:41;99606.66;;;4.23;100.00
9059;BME280;4564;42.034;25.834;2023-01-28T01:53:15;99615.38;;;4.25;100.00
9059;BME280;4564;42.034;25.834;2023-01-28T01:55:44;99611.22;;;4.31;100.00
9059;BME280;4564;42.034;25.834;2023-01-28T01:58:12;99618.25;;;4.32;100.00
9059;BME280;4564;42.034;25.834;2023-01-28T02:00:41;99615.41;;;4.33;100.00
9059;BME280;4564;42.034;25.834;2023-01-28T02:03:07;99621.75;;;4.32;100.00
9059;BME280;4564;42.034;25.834;2023-01-28T02:05:36;99612.84;;;4.23;100.00
9059;BME280;4564;42.034;25.834;2023-01-28T02:08:04;99623.78;;;4.30;100.00
9059;BME280;4564;42.034;25.834;2023-01-28T02:11:00;99627.13;;;4.32;100.00
9059;BME280;4564;42.034;25.834;2023-01-28T02:13:29;99627.81;;;4.26;100.00
9059;BME280;4564;42.034;25.834;2023-01-28T02:15:57;99632.00;;;4.20;100.00
9059;BME280;4564;42.034;25.834;2023-01-28T02:18:25;99638.22;;;4.21;100.00
9059;BME280;4564;42.034;25.834;2023-01-28T02:21:03;99639.50;;;4.17;100.00
9059;BME280;4564;42.034;25.834;2023-01-28T02:23:43;99638.38;;;4.19;100.00
9059;BME280;4564;42.034;25.834;2023-01-28T02:26:28;99640.56;;;4.24;100.00
9059;BME280;4564;42.034;25.834;2023-01-28T02:29:03;99643.09;;;4.26;100.00
9059;BME280;4564;42.034;25.834;2023-01-28T02:31:33;99652.78;;;4.18;100.00
9059;BME280;4564;42.034;25.834;2023-01-28T02:34:05;99645.41;;;4.20;100.00
9059;BME280;4564;42.034;25.834;2023-01-28T02:36:36;99650.97;;;4.27;100.00
9059;BME280;4564;42.034;25.834;2023-01-28T02:39:07;99652.16;;;4.33;100.00
9059;BME280;4564;42.034;25.834;2023-01-28T02:41:37;99652.00;;;4.34;100.00
9059;BME280;4564;42.034;25.834;2023-01-28T02:44:07;99648.97;;;4.29;100.00
9059;BME280;4564;42.034;25.834;2023-01-28T02:46:35;99658.00;;;4.28;100.00
9059;BME280;4564;42.034;25.834;2023-01-28T02:49:20;99659.84;;;4.28;100.00
9059;BME280;4564;42.034;25.834;2023-01-28T02:51:54;99660.34;;;4.23;100.00
9059;BME280;4564;42.034;25.834;2023-01-28T02:54:29;99663.03;;;4.15;100.00
9059;BME280;4564;42.034;25.834;2023-01-28T02:56:59;99659.66;;;4.13;100.00
9059;BME280;4564;42.034;25.834;2023-01-28T02:59:31;99659.44;;;4.06;100.00
9059;BME280;4564;42.034;25.834;2023-01-28T03:02:03;99660.09;;;4.00;100.00
9059;BME280;4564;42.034;25.834;2023-01-28T03:04:34;99656.19;;;3.95;100.00
9059;BME280;4564;42.034;25.834;2023-01-28T03:07:04;99660.22;;;3.91;100.00
9059;BME280;4564;42.034;25.834;2023-01-28T03:09:32;99666.44;;;3.91;100.00
9059;BME280;4564;42.034;25.834;2023-01-28T03:11:59;99660.69;;;3.86;100.00
9059;BME280;4564;42.034;25.834;2023-01-28T03:14:47;99671.59;;;3.85;100.00
9059;BME280;4564;42.034;25.834;2023-01-28T03:17:35;99671.28;;;3.88;100.00
9059;BME280;4564;42.034;25.834;2023-01-28T03:20:20;99657.53;;;3.91;100.00
9059;BME280;4564;42.034;25.834;2023-01-28T03:23:06;99670.56;;;3.77;100.00
9059;BME280;4564;42.034;25.834;2023-01-28T03:25:52;99668.53;;;3.79;100.00
9059;BME280;4564;42.034;25.834;2023-01-28T03:28:38;99685.63;;;3.78;100.00
9059;BME280;4564;42.034;25.834;2023-01-28T03:31:23;99685.44;;;3.72;100.00
9059;BME280;4564;42.034;25.834;2023-01-28T03:34:08;99687.47;;;3.78;100.00
9059;BME280;4564;42.034;25.834;2023-01-28T03:36:52;99684.63;;;3.79;100.00
9059;BME280;4564;42.034;25.834;2023-01-28T03:39:21;99689.38;;;3.86;100.00
9059;BME280;4564;42.034;25.834;2023-01-28T03:41:54;99679.84;;;3.91;100.00
9059;BME280;4564;42.034;25.834;2023-01-28T03:44:22;99684.84;;;3.86;100.00
9059;BME280;4564;42.034;25.834;2023-01-28T03:47:07;99690.06;;;3.88;100.00
9059;BME280;4564;42.034;25.834;2023-01-28T03:49:36;99691.13;;;3.69;100.00
9059;BME280;4564;42.034;25.834;2023-01-28T03:52:02;99696.69;;;3.75;100.00
9059;BME280;4564;42.034;25.834;2023-01-28T03:54:29;99690.81;;;3.72;100.00
9059;BME280;4564;42.034;25.834;2023-01-28T03:56:56;99694.00;;;3.75;100.00
9059;BME280;4564;42.034;25.834;2023-01-28T03:59:22;99696.84;;;3.74;100.00
9059;BME280;4564;42.034;25.834;2023-01-28T04:01:49;99696.38;;;3.78;100.00
9059;BME280;4564;42.034;25.834;2023-01-28T04:04:17;99700.75;;;3.79;100.00
9059;BME280;4564;42.034;25.834;2023-01-28T04:06:47;99704.41;;;3.78;100.00
9059;BME280;4564;42.034;25.834;2023-01-28T04:09:14;99702.44;;;3.80;100.00
9059;BME280;4564;42.034;25.834;2023-01-28T04:11:40;99705.97;;;3.81;100.00
9059;BME280;4564;42.034;25.834;2023-01-28T04:14:07;99698.41;;;3.85;100.00
9059;BME280;4564;42.034;25.834;2023-01-28T04:16:34;99687.69;;;3.85;100.00
9059;BME280;4564;42.034;25.834;2023-01-28T04:19:00;99696.72;;;3.84;100.00
9059;BME280;4564;42.034;25.834;2023-01-28T04:21:28;99698.13;;;3.88;100.00
9059;BME280;4564;42.034;25.834;2023-01-28T04:23:55;99704.84;;;3.92;100.00
9059;BME280;4564;42.034;25.834;2023-01-28T04:26:21;99713.59;;;3.94;100.00
9059;BME280;4564;42.034;25.834;2023-01-28T04:28:48;99714.72;;;3.91;100.00
9059;BME280;4564;42.034;25.834;2023-01-28T04:31:15;99708.84;;;3.88;100.00
9059;BME280;4564;42.034;25.834;2023-01-28T04:33:41;99720.22;;;3.82;100.00
9059;BME280;4564;42.034;25.834;2023-01-28T04:36:08;99717.06;;;3.86;100.00
9059;BME280;4564;42.034;25.834;2023-01-28T04:38:36;99717.22;;;3.85;100.00
9059;BME280;4564;42.034;25.834;2023-01-28T04:41:03;99720.06;;;3.83;100.00
9059;BME280;4564;42.034;25.834;2023-01-28T04:43:29;99726.09;;;3.85;100.00
9059;BME280;4564;42.034;25.834;2023-01-28T04:45:56;99728.31;;;3.90;100.00
9059;BME280;4564;42.034;25.834;2023-01-28T04:48:22;99730.00;;;3.91;100.00
9059;BME280;4564;42.034;25.834;2023-01-28T04:50:49;99737.16;;;3.82;100.00
9059;BME280;4564;42.034;25.834;2023-01-28T04:53:16;99735.34;;;3.91;100.00
9059;BME280;4564;42.034;25.834;2023-01-28T04:55:44;99729.16;;;3.90;100.00
9059;BME280;4564;42.034;25.834;2023-01-28T04:58:11;99727.47;;;3.89;100.00
9059;BME280;4564;42.034;25.834;2023-01-28T05:00:37;99730.63;;;3.85;100.00
9059;BME280;4564;42.034;25.834;2023-01-28T05:03:04;99736.41;;;3.98;100.00
9059;BME280;4564;42.034;25.834;2023-01-28T05:05:30;99738.56;;;3.94;100.00
9059;BME280;4564;42.034;25.834;2023-01-28T05:07:57;99742.91;;;3.87;100.00
9059;BME280;4564;42.034;25.834;2023-01-28T05:10:24;99759.16;;;3.86;100.00
9059;BME280;4564;42.034;25.834;2023-01-28T05:12:53;99753.63;;;3.87;100.00
9059;BME280;4564;42.034;25.834;2023-01-28T05:15:20;99751.16;;;3.94;100.00
9059;BME280;4564;42.034;25.834;2023-01-28T05:17:47;99756.31;;;3.87;100.00
9059;BME280;4564;42.034;25.834;2023-01-28T05:20:14;99765.00;;;3.81;100.00
9059;BME280;4564;42.034;25.834;2023-01-28T05:22:40;99774.84;;;3.72;100.00
9059;BME280;4564;42.034;25.834;2023-01-28T05:25:08;99777.53;;;3.72;100.00
9059;BME280;4564;42.034;25.834;2023-01-28T05:27:34;99763.16;;;3.82;100.00
9059;BME280;4564;42.034;25.834;2023-01-28T05:30:03;99773.25;;;3.88;100.00
9059;BME280;4564;42.034;25.834;2023-01-28T05:32:30;99774.38;;;3.77;100.00
9059;BME280;4564;42.034;25.834;2023-01-28T05:34:57;99777.91;;;3.77;100.00
9059;BME280;4564;42.034;25.834;2023-01-28T05:37:23;99780.34;;;3.71;100.00
9059;BME280;4564;42.034;25.834;2023-01-28T05:39:50;99780.19;;;3.72;100.00
9059;BME280;4564;42.034;25.834;2023-01-28T05:42:16;99781.00;;;3.73;100.00
9059;BME280;4564;42.034;25.834;2023-01-28T05:44:45;99792.13;;;3.78;100.00
9059;BME280;4564;42.034;25.834;2023-01-28T05:47:13;99795.03;;;3.85;100.00
9059;BME280;4564;42.034;25.834;2023-01-28T05:49:39;99791.34;;;3.86;100.00
9059;BME280;4564;42.034;25.834;2023-01-28T05:52:06;99795.03;;;3.85;100.00
9059;BME280;4564;42.034;25.834;2023-01-28T05:54:32;99800.41;;;3.85;100.00
9059;BME280;4564;42.034;25.834;2023-01-28T05:56:59;99803.16;;;3.93;100.00
9059;BME280;4564;42.034;25.834;2023-01-28T05:59:25;99800.75;;;3.90;100.00
9059;BME280;4564;42.034;25.834;2023-01-28T06:01:52;99814.50;;;3.87;100.00
9059;BME280;4564;42.034;25.834;2023-01-28T06:04:20;99816.56;;;3.93;100.00
9059;BME280;4564;42.034;25.834;2023-01-28T06:06:46;99814.38;;;3.88;100.00
9059;BME280;4564;42.034;25.834;2023-01-28T06:09:13;99815.56;;;3.94;100.00
9059;BME280;4564;42.034;25.834;2023-01-28T06:11:40;99816.63;;;4.01;100.00
9059;BME280;4564;42.034;25.834;2023-01-28T06:14:07;99809.16;;;4.12;100.00
9059;BME280;4564;42.034;25.834;2023-01-28T06:16:33;99815.25;;;4.22;100.00
9059;BME280;4564;42.034;25.834;2023-01-28T06:19:00;99822.47;;;4.22;100.00
9059;BME280;4564;42.034;25.834;2023-01-28T06:21:28;99830.44;;;4.32;100.00
9059;BME280;4564;42.034;25.834;2023-01-28T06:23:54;99826.22;;;4.29;100.00
9059;BME280;4564;42.034;25.834;2023-01-28T06:26:21;99832.09;;;4.33;100.00
9059;BME280;4564;42.034;25.834;2023-01-28T06:28:48;99839.16;;;4.34;100.00
9059;BME280;4564;42.034;25.834;2023-01-28T06:31:14;99842.38;;;4.37;100.00
9059;BME280;4564;42.034;25.834;2023-01-28T06:33:41;99845.06;;;4.37;100.00
9059;BME280;4564;42.034;25.834;2023-01-28T06:36:07;99848.75;;;4.36;100.00
9059;BME280;4564;42.034;25.834;2023-01-28T06:38:35;99858.38;;;4.47;100.00
9059;BME280;4564;42.034;25.834;2023-01-28T06:41:02;99854.53;;;4.49;100.00
9059;BME280;4564;42.034;25.834;2023-01-28T06:43:28;99852.75;;;4.58;100.00
9059;BME280;4564;42.034;25.834;2023-01-28T06:45:55;99855.44;;;4.66;100.00
9059;BME280;4564;42.034;25.834;2023-01-28T06:48:22;99860.34;;;4.71;100.00
9059;BME280;4564;42.034;25.834;2023-01-28T06:50:49;99860.69;;;4.76;100.00
9059;BME280;4564;42.034;25.834;2023-01-28T06:53:16;99863.44;;;4.84;100.00
9059;BME280;4564;42.034;25.834;2023-01-28T06:55:44;99873.00;;;4.86;100.00
9059;BME280;4564;42.034;25.834;2023-01-28T06:58:11;99874.91;;;4.94;100.00
9059;BME280;4564;42.034;25.834;2023-01-28T07:00:37;99878.94;;;4.98;100.00
9059;BME280;4564;42.034;25.834;2023-01-28T07:03:04;99875.88;;;4.85;100.00
9059;BME280;4564;42.034;25.834;2023-01-28T07:05:30;99876.19;;;4.82;100.00
9059;BME280;4564;42.034;25.834;2023-01-28T07:07:57;99886.81;;;4.91;100.00
9059;BME280;4564;42.034;25.834;2023-01-28T07:10:24;99888.50;;;4.92;100.00
9059;BME280;4564;42.034;25.834;2023-01-28T07:12:52;99888.00;;;4.97;99.59
9059;BME280;4564;42.034;25.834;2023-01-28T07:15:18;99897.09;;;4.96;99.36
9059;BME280;4564;42.034;25.834;2023-01-28T07:17:45;99897.63;;;4.99;99.96
9059;BME280;4564;42.034;25.834;2023-01-28T07:20:12;99899.31;;;5.00;100.00
9059;BME280;4564;42.034;25.834;2023-01-28T07:22:40;99895.13;;;5.06;100.00
9059;BME280;4564;42.034;25.834;2023-01-28T07:25:07;99895.34;;;5.21;100.00
9059;BME280;4564;42.034;25.834;2023-01-28T07:27:34;99891.16;;;5.26;99.35
9059;BME280;4564;42.034;25.834;2023-01-28T07:30:02;99897.38;;;5.27;98.81
9059;BME280;4564;42.034;25.834;2023-01-28T07:32:29;99901.97;;;5.42;98.64
9059;BME280;4564;42.034;25.834;2023-01-28T07:34:55;99898.97;;;5.54;100.00
9059;BME280;4564;42.034;25.834;2023-01-28T07:37:22;99892.44;;;5.80;99.83
9059;BME280;4564;42.034;25.834;2023-01-28T07:39:49;99903.78;;;5.92;97.71
9059;BME280;4564;42.034;25.834;2023-01-28T07:42:16;99913.03;;;5.98;96.12
9059;BME280;4564;42.034;25.834;2023-01-28T07:44:43;99917.56;;;6.05;95.52
9059;BME280;4564;42.034;25.834;2023-01-28T07:47:11;99921.56;;;5.85;92.12
9059;BME280;4564;42.034;25.834;2023-01-28T07:49:37;99928.28;;;5.81;92.96
9059;BME280;4564;42.034;25.834;2023-01-28T07:52:05;99928.28;;;5.81;93.74
9059;BME280;4564;42.034;25.834;2023-01-28T07:54:31;99928.97;;;5.75;94.50
9059;BME280;4564;42.034;25.834;2023-01-28T07:56:58;99925.91;;;5.78;94.63
9059;BME280;4564;42.034;25.834;2023-01-28T07:59:24;99925.59;;;5.81;94.04
9059;BME280;4564;42.034;25.834;2023-01-28T08:01:51;99930.34;;;5.95;93.24
9059;BME280;4564;42.034;25.834;2023-01-28T08:04:19;99932.19;;;5.95;93.07
9059;BME280;4564;42.034;25.834;2023-01-28T08:06:46;99931.38;;;6.10;92.88
9059;BME280;4564;42.034;25.834;2023-01-28T08:09:12;99940.47;;;6.01;92.41
9059;BME280;4564;42.034;25.834;2023-01-28T08:11:39;99941.47;;;5.92;91.84
9059;BME280;4564;42.034;25.834;2023-01-28T08:14:06;99950.56;;;6.07;91.09
9059;BME280;4564;42.034;25.834;2023-01-28T08:16:33;99953.28;;;5.99;90.02
9059;BME280;4564;42.034;25.834;2023-01-28T08:18:59;99950.41;;;5.93;88.44
9059;BME280;4564;42.034;25.834;2023-01-28T08:21:28;99956.97;;;5.98;87.66
9059;BME280;4564;42.034;25.834;2023-01-28T08:23:54;99963.34;;;5.89;88.10
9059;BME280;4564;42.034;25.834;2023-01-28T08:26:22;99960.97;;;5.94;88.42
9059;BME280;4564;42.034;25.834;2023-01-28T08:28:49;99966.25;;;6.04;88.69
9059;BME280;4564;42.034;25.834;2023-01-28T08:31:15;99968.09;;;6.11;86.75
9059;BME280;4564;42.034;25.834;2023-01-28T08:33:42;99968.09;;;6.11;87.62
9059;BME280;4564;42.034;25.834;2023-01-28T08:36:09;99970.13;;;6.17;87.63
9059;BME280;4564;42.034;25.834;2023-01-28T08:38:37;99966.25;;;6.04;87.61
9059;BME280;4564;42.034;25.834;2023-01-28T08:41:03;99978.31;;;6.00;87.36
9059;BME280;4564;42.034;25.834;2023-01-28T08:43:30;99976.81;;;5.97;87.65
9059;BME280;4564;42.034;25.834;2023-01-28T08:45:56;99976.84;;;6.13;86.95
9059;BME280;4564;42.034;25.834;2023-01-28T08:48:23;99967.75;;;6.14;88.73
9059;BME280;4564;42.034;25.834;2023-01-28T08:50:50;99973.84;;;6.24;88.72
9059;BME280;4564;42.034;25.834;2023-01-28T08:53:17;99978.69;;;6.21;86.90
9059;BME280;4564;42.034;25.834;2023-01-28T08:55:45;99979.03;;;6.18;86.12
9059;BME280;4564;42.034;25.834;2023-01-28T08:58:12;99981.22;;;6.22;87.99
9059;BME280;4564;42.034;25.834;2023-01-28T09:00:39;99968.94;;;6.28;86.70
9059;BME280;4564;42.034;25.834;2023-01-28T09:03:06;99975.50;;;6.09;87.93
9059;BME280;4564;42.034;25.834;2023-01-28T09:05:33;99968.63;;;6.15;87.90
9059;BME280;4564;42.034;25.834;2023-01-28T09:08:00;99972.81;;;6.33;87.72
9059;BME280;4564;42.034;25.834;2023-01-28T09:10:26;99968.94;;;6.28;87.16
9059;BME280;4564;42.034;25.834;2023-01-28T09:12:54;99966.94;;;6.30;86.46
9059;BME280;4564;42.034;25.834;2023-01-28T09:15:21;99968.75;;;6.38;87.30
9059;BME280;4564;42.034;25.834;2023-01-28T09:17:48;99962.38;;;6.47;86.46
9059;BME280;4564;42.034;25.834;2023-01-28T09:20:14;99959.34;;;6.58;88.59
9059;BME280;4564;42.034;25.834;2023-01-28T09:22:41;99965.53;;;6.91;87.95
9059;BME280;4564;42.034;25.834;2023-01-28T09:25:08;99956.00;;;7.19;85.75
9059;BME280;4564;42.034;25.834;2023-01-28T09:27:34;99954.81;;;7.13;86.67
9059;BME280;4564;42.034;25.834;2023-01-28T09:30:03;99952.44;;;7.18;86.39
9059;BME280;4564;42.034;25.834;2023-01-28T09:32:31;99957.84;;;7.18;85.36
9059;BME280;4564;42.034;25.834;2023-01-28T09:34:57;99962.69;;;7.39;86.19
9059;BME280;4564;42.034;25.834;2023-01-28T09:37:24;99954.91;;;7.36;86.62
9059;BME280;4564;42.034;25.834;2023-01-28T09:39:51;99959.19;;;7.23;85.46
9059;BME280;4564;42.034;25.834;2023-01-28T09:42:21;99953.13;;;7.29;86.97
9059;BME280;4564;42.034;25.834;2023-01-28T09:44:54;99955.13;;;7.27;86.82
9059;BME280;4564;42.034;25.834;2023-01-28T09:47:25;99961.16;;;7.45;86.38
9059;BME280;4564;42.034;25.834;2023-01-28T09:49:53;99962.06;;;7.60;86.25
9059;BME280;4564;42.034;25.834;2023-01-28T09:52:22;99959.38;;;7.60;86.09
9059;BME280;4564;42.034;25.834;2023-01-28T09:54:50;99952.91;;;7.69;84.68
9059;BME280;4564;42.034;25.834;2023-01-28T09:57:19;99955.59;;;7.69;85.72
9059;BME280;4564;42.034;25.834;2023-01-28T09:59:46;99951.50;;;7.81;86.28
9059;BME280;4564;42.034;25.834;2023-01-28T10:02:24;99953.13;;;7.90;86.25
9059;BME280;4564;42.034;25.834;2023-01-28T10:04:57;99949.63;;;8.05;86.08
9059;BME280;4564;42.034;25.834;2023-01-28T10:07:33;99954.91;;;8.21;84.32
9059;BME280;4564;42.034;25.834;2023-01-28T10:10:03;99956.50;;;8.38;83.18
9059;BME280;4564;42.034;25.834;2023-01-28T10:12:36;99951.19;;;8.22;84.97
9059;BME280;4564;42.034;25.834;2023-01-28T10:15:09;99952.88;;;8.23;81.49
9059;BME280;4564;42.034;25.834;2023-01-28T10:17:42;99954.81;;;8.37;82.35
9059;BME280;4564;42.034;25.834;2023-01-28T10:20:15;99955.31;;;8.40;84.53
9059;BME280;4564;42.034;25.834;2023-01-28T10:22:45;99952.75;;;8.62;81.93
9059;BME280;4564;42.034;25.834;2023-01-28T10:25:14;99950.81;;;8.70;81.81
9059;BME280;4564;42.034;25.834;2023-01-28T10:27:43;99956.91;;;9.02;81.83
9059;BME280;4564;42.034;25.834;2023-01-28T10:30:14;99962.72;;;8.47;78.19
9059;BME280;4564;42.034;25.834;2023-01-28T10:32:43;99963.59;;;8.76;81.36
9059;BME280;4564;42.034;25.834;2023-01-28T10:35:11;99958.53;;;9.11;80.79
9059;BME280;4564;42.034;25.834;2023-01-28T10:37:39;99961.97;;;9.19;79.53
9059;BME280;4564;42.034;25.834;2023-01-28T10:40:06;99965.72;;;9.33;77.85
9059;BME280;4564;42.034;25.834;2023-01-28T10:42:37;99961.69;;;9.29;76.53
9059;BME280;4564;42.034;25.834;2023-01-28T10:45:06;99966.06;;;9.30;76.95
9059;BME280;4564;42.034;25.834;2023-01-28T10:50:00;99965.91;;;9.17;77.55
9059;BME280;4564;42.034;25.834;2023-01-28T10:52:29;99962.16;;;9.33;74.48
9059;BME280;4564;42.034;25.834;2023-01-28T10:55:01;99961.97;;;9.19;74.86
9059;BME280;4564;42.034;25.834;2023-01-28T10:57:29;99971.78;;;9.06;76.41
9059;BME280;4564;42.034;25.834;2023-01-28T11:00:08;99963.66;;;9.06;76.92
9059;BME280;4564;42.034;25.834;2023-01-28T11:02:34;99965.97;;;9.09;77.25
9059;BME280;4564;42.034;25.834;2023-01-28T11:05:05;99958.69;;;8.95;76.55
9059;BME280;4564;42.034;25.834;2023-01-28T11:07:32;99974.19;;;9.01;75.10
9059;BME280;4564;42.034;25.834;2023-01-28T11:10:00;99962.16;;;9.18;75.34
9059;BME280;4564;42.034;25.834;2023-01-28T11:12:28;99958.16;;;9.43;74.37
9059;BME280;4564;42.034;25.834;2023-01-28T11:14:55;99957.75;;;9.46;73.90
9059;BME280;4564;42.034;25.834;2023-01-28T11:17:23;99961.13;;;9.48;72.49
9059;BME280;4564;42.034;25.834;2023-01-28T11:19:50;99961.38;;;9.68;72.62
9059;BME280;4564;42.034;25.834;2023-01-28T11:22:20;99955.00;;;9.61;73.07
9059;BME280;4564;42.034;25.834;2023-01-28T11:24:48;99955.00;;;9.61;71.71
9059;BME280;4564;42.034;25.834;2023-01-28T11:27:16;99956.03;;;9.75;72.62
9059;BME280;4564;42.034;25.834;2023-01-28T11:29:44;99951.75;;;9.65;74.06
9059;BME280;4564;42.034;25.834;2023-01-28T11:32:17;99953.84;;;9.85;74.04
9059;BME280;4564;42.034;25.834;2023-01-28T11:34:47;99948.69;;;9.90;73.74
9059;BME280;4564;42.034;25.834;2023-01-28T11:37:14;99955.38;;;9.73;71.14
9059;BME280;4564;42.034;25.834;2023-01-28T11:39:41;99959.22;;;9.63;71.61
9059;BME280;4564;42.034;25.834;2023-01-28T11:42:10;99958.50;;;9.55;72.83
9059;BME280;4564;42.034;25.834;2023-01-28T11:44:39;99961.13;;;9.48;71.83
9059;BME280;4564;42.034;25.834;2023-01-28T11:52:42;99949.75;;;9.38;72.52
9059;BME280;4564;42.034;25.834;2023-01-28T11:55:17;99946.91;;;9.46;72.93
9059;BME280;4564;42.034;25.834;2023-01-28T11:57:46;99949.91;;;9.51;71.92
9059;BME280;4564;42.034;25.834;2023-01-28T12:00:25;99945.41;;;9.58;69.47
9059;BME280;4564;42.034;25.834;2023-01-28T12:02:58;99952.25;;;9.54;69.96
9059;BME280;4564;42.034;25.834;2023-01-28T12:05:34;99949.84;;;9.15;69.97
9059;BME280;4564;42.034;25.834;2023-01-28T12:08:06;99954.91;;;8.66;70.03
9059;BME280;4564;42.034;25.834;2023-01-28T12:10:36;99956.06;;;8.49;72.64
9059;BME280;4564;42.034;25.834;2023-01-28T12:13:08;99961.50;;;8.49;72.92
9059;BME280;4564;42.034;25.834;2023-01-28T12:15:45;99953.88;;;8.53;74.27
9059;BME280;4564;42.034;25.834;2023-01-28T12:18:17;99960.84;;;8.47;75.23
9059;BME280;4564;42.034;25.834;2023-01-28T12:20:50;99964.91;;;8.43;77.18
9059;BME280;4564;42.034;25.834;2023-01-28T12:23:31;99971.47;;;8.49;76.73
9059;BME280;4564;42.034;25.834;2023-01-28T12:26:03;99972.59;;;8.31;75.84
9059;BME280;4564;42.034;25.834;2023-01-28T12:28:37;99969.41;;;8.28;75.81
9059;BME280;4564;42.034;25.834;2023-01-28T12:31:30;99975.66;;;8.28;76.61
9059;BME280;4564;42.034;25.834;2023-01-28T12:36:55;99980.53;;;7.79;76.94
9059;BME280;4564;42.034;25.834;2023-01-28T12:39:25;99984.78;;;7.74;77.70
9059;BME280;4564;42.034;25.834;2023-01-28T12:42:01;99987.66;;;7.72;76.04
9059;BME280;4564;42.034;25.834;2023-01-28T12:44:30;99989.78;;;7.85;77.00
9059;BME280;4564;42.034;25.834;2023-01-28T12:47:00;99990.59;;;7.93;76.90
9059;BME280;4564;42.034;25.834;2023-01-28T12:49:32;100001.03;;;7.96;77.74
9059;BME280;4564;42.034;25.834;2023-01-28T12:52:02;100003.69;;;7.74;78.85
9059;BME280;4564;42.034;25.834;2023-01-28T12:54:31;99997.09;;;7.76;79.43
9059;BME280;4564;42.034;25.834;2023-01-28T12:56:59;99998.13;;;7.75;79.46
9059;BME280;4564;42.034;25.834;2023-01-28T12:59:27;100008.28;;;7.65;81.27
9059;BME280;4564;42.034;25.834;2023-01-28T13:01:56;100004.28;;;7.53;83.03
9059;BME280;4564;42.034;25.834;2023-01-28T13:04:30;100010.06;;;7.50;82.96
9059;BME280;4564;42.034;25.834;2023-01-28T13:06:59;100010.38;;;7.47;82.04
9059;BME280;4564;42.034;25.834;2023-01-28T13:09:27;100011.38;;;7.54;83.35
9059;BME280;4564;42.034;25.834;2023-01-28T13:11:55;100017.09;;;7.51;83.78
9059;BME280;4564;42.034;25.834;2023-01-28T13:14:25;100023.91;;;7.39;83.22
9059;BME280;4564;42.034;25.834;2023-01-28T13:16:53;100029.00;;;7.26;81.36
9059;BME280;4564;42.034;25.834;2023-01-28T13:19:24;100029.72;;;7.03;82.13
9059;BME280;4564;42.034;25.834;2023-01-28T13:21:52;100029.75;;;6.95;81.15
9059;BME280;4564;42.034;25.834;2023-01-28T13:24:21;100031.09;;;6.83;81.85
9059;BME280;4564;42.034;25.834;2023-01-28T13:26:48;100033.81;;;6.83;80.73
9059;BME280;4564;42.034;25.834;2023-01-28T13:29:17;100027.59;;;6.74;81.19
9059;BME280;4564;42.034;25.834;2023-01-28T13:31:44;100031.28;;;6.65;81.93
9059;BME280;4564;42.034;25.834;2023-01-28T13:34:24;100035.69;;;6.58;82.53